createdAt,value
2022-11-20T00:00:07.306Z,23.04
2022-11-20T00:02:11.913Z,22.97
2022-11-20T00:04:16.338Z,22.91
2022-11-20T00:06:20.621Z,22.84
2022-11-20T00:08:24.939Z,22.89
2022-11-20T00:10:29.254Z,22.88
2022-11-20T00:12:33.668Z,22.79
2022-11-20T00:14:37.976Z,22.93
2022-11-20T00:16:42.312Z,22.9
2022-11-20T00:18:46.617Z,22.91
2022-11-20T00:20:50.965Z,22.97
2022-11-20T00:22:55.277Z,22.85
2022-11-20T00:24:59.581Z,23
2022-11-20T00:27:03.913Z,23.25
2022-11-20T00:29:08.241Z,22.94
2022-11-20T00:31:12.560Z,22.58
2022-11-20T00:33:16.910Z,22.37
2022-11-20T00:35:21.232Z,21.94
2022-11-20T00:37:25.526Z,21.71
2022-11-20T00:39:29.882Z,21.66
2022-11-20T00:41:34.189Z,21.32
2022-11-20T00:43:38.483Z,21.39
2022-11-20T00:45:42.779Z,21.31
2022-11-20T00:47:47.042Z,21.26
2022-11-20T00:49:51.362Z,21.19
2022-11-20T00:51:55.628Z,21.24
2022-11-20T00:53:59.982Z,21.14
2022-11-20T00:56:04.272Z,21.21
2022-11-20T00:58:15.545Z,21.17
2022-11-20T01:00:19.897Z,21.17
2022-11-20T01:02:24.176Z,21.27
2022-11-20T01:04:28.486Z,21.19
2022-11-20T01:06:32.866Z,21.24
2022-11-20T01:08:37.174Z,21.19
2022-11-20T01:10:41.593Z,21.17
2022-11-20T01:12:45.900Z,21.32
2022-11-20T01:14:50.158Z,21.27
2022-11-20T01:16:54.471Z,21.22
2022-11-20T01:18:58.774Z,21.35
2022-11-20T01:21:03.082Z,21.22
2022-11-20T01:23:07.421Z,21.14
2022-11-20T01:25:11.771Z,21.25
2022-11-20T01:27:16.051Z,21.29
2022-11-20T01:29:21.615Z,21.38
2022-11-20T01:31:26.058Z,21.44
2022-11-20T01:33:30.363Z,21.58
2022-11-20T01:35:34.682Z,21.51
2022-11-20T01:37:39.004Z,21.45
2022-11-20T01:39:43.300Z,21.53
2022-11-20T01:41:47.631Z,21.53
2022-11-20T01:43:51.950Z,21.41
2022-11-20T01:45:56.267Z,21.38
2022-11-20T01:48:00.589Z,21.27
2022-11-20T01:50:04.876Z,21.33
2022-11-20T01:52:09.191Z,21.29
2022-11-20T01:54:13.565Z,21.33
2022-11-20T01:56:17.880Z,21.32
2022-11-20T01:58:22.245Z,21.29
2022-11-20T02:00:26.566Z,21.31
2022-11-20T02:02:30.874Z,21.24
2022-11-20T02:04:35.173Z,21.22
2022-11-20T02:06:39.498Z,21.25
2022-11-20T02:08:43.802Z,21.23
2022-11-20T02:10:48.082Z,21.18
2022-11-20T02:12:52.457Z,21.17
2022-11-20T02:14:56.758Z,21.16
2022-11-20T02:17:01.084Z,21.07
2022-11-20T02:19:05.398Z,21.09
2022-11-20T02:21:09.676Z,21.12
2022-11-20T02:23:14.023Z,21.12
2022-11-20T02:25:18.356Z,21.17
2022-11-20T02:27:22.693Z,21.22
2022-11-20T02:29:26.995Z,21.21
2022-11-20T02:31:31.363Z,21.42
2022-11-20T02:33:35.737Z,21.33
2022-11-20T02:35:40.014Z,21.41
2022-11-20T02:37:44.337Z,21.45
2022-11-20T02:39:48.649Z,21.55
2022-11-20T02:41:52.978Z,21.46
2022-11-20T02:43:57.328Z,21.52
2022-11-20T02:46:01.649Z,21.61
2022-11-20T02:48:05.960Z,21.74
2022-11-20T02:50:10.309Z,21.7
2022-11-20T02:52:14.604Z,21.68
2022-11-20T02:54:18.971Z,21.7
2022-11-20T02:56:23.257Z,21.68
2022-11-20T02:58:27.531Z,21.65
2022-11-20T03:00:31.882Z,21.54
2022-11-20T03:02:36.186Z,21.43
2022-11-20T03:04:40.496Z,21.31
2022-11-20T03:06:44.804Z,21.33
2022-11-20T03:08:49.129Z,21.41
2022-11-20T03:10:53.426Z,21.48
2022-11-20T03:12:57.719Z,21.44
2022-11-20T03:15:02.103Z,21.49
2022-11-20T03:17:06.402Z,21.55
2022-11-20T03:19:10.866Z,21.67
2022-11-20T03:21:15.162Z,21.46
2022-11-20T03:23:19.495Z,21.46
2022-11-20T03:25:23.774Z,21.51
2022-11-20T03:27:28.064Z,21.59
2022-11-20T03:29:32.421Z,21.54
2022-11-20T03:31:36.762Z,21.68
2022-11-20T03:33:41.117Z,21.5
2022-11-20T03:35:45.416Z,21.61
2022-11-20T03:37:49.700Z,21.67
2022-11-20T03:39:54.000Z,21.99
2022-11-20T03:41:58.306Z,21.94
2022-11-20T03:44:02.628Z,21.83
2022-11-20T03:46:06.928Z,22.08
2022-11-20T03:48:11.219Z,22.11
2022-11-20T03:50:15.566Z,21.91
2022-11-20T03:52:19.880Z,21.93
2022-11-20T03:54:24.210Z,22.25
2022-11-20T03:56:28.488Z,22.32
2022-11-20T03:58:32.900Z,22.27
2022-11-20T04:00:37.220Z,22.6
2022-11-20T04:02:41.525Z,22.63
2022-11-20T04:04:45.845Z,22.54
2022-11-20T04:06:50.152Z,22.79
2022-11-20T04:08:56.123Z,22.55
2022-11-20T04:11:00.450Z,22.4
2022-11-20T04:13:04.758Z,22.55
2022-11-20T04:15:09.081Z,22.12
2022-11-20T04:17:13.445Z,22.23
2022-11-20T04:19:17.806Z,22.3
2022-11-20T04:21:22.180Z,22.19
2022-11-20T04:23:30.838Z,22.14
2022-11-20T04:25:35.160Z,21.94
2022-11-20T04:27:39.454Z,21.96
2022-11-20T04:29:43.785Z,22.06
2022-11-20T04:31:48.068Z,22.09
2022-11-20T04:33:52.639Z,22.07
2022-11-20T04:35:56.987Z,22.18
2022-11-20T04:38:01.291Z,22.15
2022-11-20T04:40:05.580Z,22.08
2022-11-20T04:42:09.904Z,21.83
2022-11-20T04:44:14.210Z,22.16
2022-11-20T04:46:18.497Z,22.32
2022-11-20T04:48:22.800Z,22.29
2022-11-20T04:50:27.086Z,22.23
2022-11-20T04:52:31.426Z,22.26
2022-11-20T04:54:35.678Z,22.26
2022-11-20T04:56:40.008Z,22.45
2022-11-20T04:58:44.362Z,22.41
2022-11-20T05:00:48.696Z,22.68
2022-11-20T05:02:53.019Z,22.68
2022-11-20T05:04:57.312Z,22.87
2022-11-20T05:07:01.816Z,22.98
2022-11-20T05:09:06.157Z,23.5
2022-11-20T05:11:10.480Z,22.8
2022-11-20T05:13:15.246Z,23.02
2022-11-20T05:15:20.008Z,22.85
2022-11-20T05:17:24.392Z,22.47
2022-11-20T05:19:28.676Z,22.55
2022-11-20T05:21:33.010Z,22.62
2022-11-20T05:23:37.292Z,22.7
2022-11-20T05:25:41.665Z,22.41
2022-11-20T05:27:45.970Z,22.71
2022-11-20T05:29:50.281Z,22.5
2022-11-20T05:31:54.582Z,22.65
2022-11-20T05:33:58.989Z,22.73
2022-11-20T05:36:03.298Z,23.01
2022-11-20T05:38:07.574Z,23.06
2022-11-20T05:40:11.866Z,22.38
2022-11-20T05:42:16.194Z,22.42
2022-11-20T05:44:20.492Z,22.59
2022-11-20T05:46:30.906Z,22.48
2022-11-20T05:48:35.193Z,22.62
2022-11-20T05:50:39.544Z,22.3
2022-11-20T05:52:43.894Z,22.21
2022-11-20T05:54:48.194Z,22.4
2022-11-20T05:56:52.512Z,22.14
2022-11-20T05:58:56.828Z,22.07
2022-11-20T06:01:01.248Z,22.04
2022-11-20T06:03:05.839Z,21.92
2022-11-20T06:05:10.151Z,22.05
2022-11-20T06:07:14.722Z,21.99
2022-11-20T06:09:19.538Z,22.04
2022-11-20T06:11:24.070Z,21.92
2022-11-20T06:13:28.420Z,22.09
2022-11-20T06:15:32.740Z,22.1
2022-11-20T06:17:37.091Z,22.14
2022-11-20T06:19:41.376Z,21.92
2022-11-20T06:21:45.702Z,21.88
2022-11-20T06:23:50.024Z,21.91
2022-11-20T06:25:54.318Z,22.03
2022-11-20T06:27:58.659Z,21.95
2022-11-20T06:30:02.946Z,22.04
2022-11-20T06:32:07.280Z,21.97
2022-11-20T06:34:11.692Z,22.18
2022-11-20T06:36:15.995Z,22.15
2022-11-20T06:38:20.364Z,22.03
2022-11-20T06:40:24.682Z,22.01
2022-11-20T06:42:29.017Z,22.23
2022-11-20T06:44:33.320Z,22.18
2022-11-20T06:46:37.601Z,22.02
2022-11-20T06:48:41.953Z,22.04
2022-11-20T06:50:46.246Z,22.1
2022-11-20T06:52:50.618Z,22.17
2022-11-20T06:54:54.923Z,22.17
2022-11-20T06:56:59.206Z,22.1
2022-11-20T06:59:03.553Z,22.25
2022-11-20T07:01:08.010Z,22.18
2022-11-20T07:03:12.388Z,22.32
2022-11-20T07:05:16.764Z,22.84
2022-11-20T07:07:21.368Z,23.22
2022-11-20T07:09:26.885Z,22.75
2022-11-20T07:11:31.420Z,22.43
2022-11-20T07:13:35.734Z,22.48
2022-11-20T07:15:40.095Z,22.78
2022-11-20T07:17:44.432Z,22.69
2022-11-20T07:19:48.742Z,22.58
2022-11-20T07:21:53.070Z,23.14
2022-11-20T07:23:57.381Z,22.71
2022-11-20T07:26:01.689Z,23.26
2022-11-20T07:28:06.017Z,22.74
2022-11-20T07:30:10.297Z,22.58
2022-11-20T07:32:14.571Z,22.75
2022-11-20T07:34:18.997Z,22.6
2022-11-20T07:36:23.290Z,23.11
2022-11-20T07:38:27.624Z,23.22
2022-11-20T07:40:31.992Z,23.54
2022-11-20T07:42:36.301Z,23.28
2022-11-20T07:44:40.607Z,23.82
2022-11-20T07:46:44.899Z,23.62
2022-11-20T07:48:49.238Z,23.82
2022-11-20T07:50:53.548Z,23.56
2022-11-20T07:52:57.862Z,23.92
2022-11-20T07:55:02.223Z,23.79
2022-11-20T07:57:06.532Z,23.51
2022-11-20T07:59:10.878Z,23.08
2022-11-20T08:01:15.377Z,23.24
2022-11-20T08:03:26.937Z,23.44
2022-11-20T08:05:31.280Z,23.36
2022-11-20T08:07:35.757Z,23.37
2022-11-20T08:09:40.151Z,23.24
2022-11-20T08:11:44.461Z,23.43
2022-11-20T08:13:48.793Z,23.56
2022-11-20T08:15:53.116Z,23.34
2022-11-20T08:18:33.484Z,23.36
2022-11-20T08:20:38.026Z,23.21
2022-11-20T08:22:42.324Z,23.05
2022-11-20T08:24:46.654Z,23.12
2022-11-20T08:26:50.943Z,23.16
2022-11-20T08:28:55.252Z,23.34
2022-11-20T08:30:59.585Z,23.54
2022-11-20T08:33:03.907Z,23.63
2022-11-20T08:35:08.229Z,23.46
2022-11-20T08:37:12.515Z,23.33
2022-11-20T08:39:16.875Z,23.25
2022-11-20T08:41:21.216Z,23.16
2022-11-20T08:43:25.518Z,23.05
2022-11-20T08:45:36.640Z,23.11
2022-11-20T08:47:40.997Z,23.21
2022-11-20T08:49:45.273Z,23.83
2022-11-20T08:51:49.576Z,23.92
2022-11-20T08:53:53.877Z,23.74
2022-11-20T08:55:58.186Z,23.92
2022-11-20T08:58:02.606Z,23.59
2022-11-20T09:35:02.048Z,29.39
2022-11-20T09:37:09.752Z,29.61
2022-11-20T09:39:14.033Z,29.4
2022-11-20T09:41:18.346Z,29.63
2022-11-20T09:43:22.679Z,28.97
2022-11-20T09:45:27.001Z,29.56
2022-11-20T09:47:31.320Z,29.33
2022-11-20T09:49:36.528Z,29.42
2022-11-20T09:51:40.837Z,31.13
2022-11-20T09:53:45.175Z,30.76
2022-11-20T09:55:49.449Z,29.59
2022-11-20T09:57:53.807Z,30.73
2022-11-20T09:59:58.113Z,30.49
2022-11-20T10:02:02.476Z,30.58
2022-11-20T10:04:06.798Z,30.4
2022-11-20T10:06:11.119Z,30.62
2022-11-20T10:08:15.729Z,31.06
2022-11-20T10:10:20.500Z,30.62
2022-11-20T10:12:24.779Z,30.57
2022-11-20T10:14:29.107Z,30.61
2022-11-20T10:16:41.856Z,30.32
2022-11-20T10:18:46.156Z,30.61
2022-11-20T10:20:50.472Z,30.98
2022-11-20T10:22:54.770Z,32.67
2022-11-20T10:24:59.082Z,31.97
2022-11-20T10:27:03.419Z,31.63
2022-11-20T10:29:10.984Z,31.86
2022-11-20T10:31:15.340Z,32.4
2022-11-20T10:33:19.672Z,32.62
2022-11-20T10:35:24.075Z,32.54
2022-11-20T10:37:28.866Z,33.41
2022-11-20T10:39:33.215Z,35.18
2022-11-20T10:41:39.090Z,34.12
2022-11-20T10:43:43.458Z,33.2
2022-11-20T10:45:47.805Z,35.16
2022-11-20T10:47:52.129Z,34.18
2022-11-20T10:49:56.508Z,34.49
2022-11-20T10:52:00.829Z,34.5
2022-11-20T10:54:05.202Z,34.61
2022-11-20T10:56:09.535Z,35.1
2022-11-20T10:58:13.876Z,34.62
2022-11-20T11:00:18.332Z,34.26
2022-11-20T11:02:23.041Z,34.48
2022-11-20T11:04:27.336Z,35.23
2022-11-20T11:06:31.704Z,34.76
2022-11-20T11:08:36.027Z,35.81
2022-11-20T11:10:40.325Z,36.07
2022-11-20T11:12:44.669Z,35.32
2022-11-20T11:14:48.986Z,34.15
2022-11-20T11:16:53.333Z,34.51
2022-11-20T11:18:57.678Z,35.63
2022-11-20T11:21:02.019Z,35.68
2022-11-20T11:23:06.342Z,35.74
2022-11-20T11:25:10.624Z,34.83
2022-11-20T11:27:19.377Z,34.06
2022-11-20T11:29:25.009Z,35.07
2022-11-20T11:31:29.742Z,35.51
2022-11-20T11:33:34.113Z,35.05
2022-11-20T11:35:38.425Z,35.12
2022-11-20T11:37:42.759Z,34.21
2022-11-20T11:39:51.900Z,33.95
2022-11-20T11:42:03.629Z,35.44
2022-11-20T11:44:07.946Z,35.9
2022-11-20T11:46:12.285Z,35.51
2022-11-20T11:48:16.656Z,34.95
2022-11-20T11:50:20.957Z,33.73
2022-11-20T11:52:25.301Z,33.85
2022-11-20T11:54:29.776Z,34.98
2022-11-20T11:56:34.111Z,35.44
2022-11-20T11:58:38.732Z,34.99
2022-11-20T12:00:43.092Z,35.41
2022-11-20T12:02:47.439Z,34.64
2022-11-20T12:04:51.740Z,35.97
2022-11-20T12:06:56.117Z,34.99
2022-11-20T12:09:00.468Z,36.46
2022-11-20T12:11:04.774Z,36.89
2022-11-20T12:13:09.097Z,37.6
2022-11-20T12:15:13.402Z,35.71
2022-11-20T12:17:17.698Z,34.33
2022-11-20T12:19:23.200Z,34.01
2022-11-20T12:21:27.579Z,33.54
2022-11-20T12:23:31.878Z,33.18
2022-11-20T12:25:36.182Z,34.31
2022-11-20T12:27:40.414Z,34.66
2022-11-20T12:29:44.728Z,33.82
2022-11-20T12:31:48.986Z,33.59
2022-11-20T12:33:53.304Z,33.33
2022-11-20T12:35:57.655Z,34.34
2022-11-20T12:38:01.985Z,34.07
2022-11-20T12:40:06.255Z,33.64
2022-11-20T12:42:10.583Z,33.97
2022-11-20T12:44:14.877Z,33.84
2022-11-20T12:46:19.287Z,33.59
2022-11-20T12:48:23.562Z,33.5
2022-11-20T12:50:28.157Z,33.24
2022-11-20T12:52:32.544Z,33.42
2022-11-20T12:54:36.847Z,33.89
2022-11-20T12:56:41.225Z,33.86
2022-11-20T12:58:45.576Z,33.11
2022-11-20T13:00:50.057Z,33.18
2022-11-20T13:02:54.422Z,33.57
2022-11-20T13:04:58.763Z,33.5
2022-11-20T13:07:03.329Z,33.53
2022-11-20T13:09:07.794Z,34.06
2022-11-20T13:11:12.313Z,33.76
2022-11-20T13:13:16.678Z,33.94
2022-11-20T13:15:21.083Z,33.67
2022-11-20T13:17:25.389Z,33.76
2022-11-20T13:19:29.722Z,33.53
2022-11-20T13:21:34.047Z,33.65
2022-11-20T13:23:38.467Z,33.7
2022-11-20T13:25:42.826Z,34.15
2022-11-20T13:27:47.167Z,35.63
2022-11-20T13:29:51.635Z,36.17
2022-11-20T13:31:55.953Z,37.03
2022-11-20T13:34:00.310Z,34.45
2022-11-20T13:36:04.672Z,33.76
2022-11-20T13:38:09.031Z,36.36
2022-11-20T13:40:13.401Z,34.05
2022-11-20T13:42:17.761Z,36.08
2022-11-20T13:44:22.978Z,35.8
2022-11-20T13:46:27.462Z,34.06
2022-11-20T13:48:31.844Z,36.57
2022-11-20T13:50:36.187Z,34.88
2022-11-20T13:52:40.537Z,33.97
2022-11-20T13:54:44.899Z,34.38
2022-11-20T13:56:49.255Z,33.68
2022-11-20T13:58:53.596Z,33.97
2022-11-20T14:00:58.187Z,35.73
2022-11-20T14:03:02.491Z,35.14
2022-11-20T14:05:06.841Z,34.68
2022-11-20T14:09:45.907Z,35.37
2022-11-20T14:11:50.211Z,35.59
2022-11-20T14:13:54.573Z,36.06
2022-11-20T14:15:58.904Z,36.83
2022-11-20T14:18:03.235Z,36.33
2022-11-20T14:20:07.629Z,35.83
2022-11-20T14:22:12.039Z,36.31
2022-11-20T14:24:16.356Z,35.42
2022-11-20T14:26:20.891Z,37.33
2022-11-20T14:28:25.460Z,36.31
2022-11-20T14:30:29.858Z,35.08
2022-11-20T14:32:34.206Z,34.66
2022-11-20T14:34:38.562Z,35.15
2022-11-20T14:36:42.999Z,36.27
2022-11-20T14:38:47.376Z,37.25
2022-11-20T14:40:51.892Z,35.01
2022-11-20T14:42:56.334Z,35.58
2022-11-20T14:45:00.806Z,35.14
2022-11-20T14:47:05.250Z,36.78
2022-11-20T14:49:09.672Z,37.15
2022-11-20T14:51:14.251Z,37.38
2022-11-20T14:53:18.736Z,37.95
2022-11-20T14:55:23.299Z,36.32
2022-11-20T14:57:27.815Z,36.01
2022-11-20T14:59:32.381Z,37.63
2022-11-20T15:01:36.978Z,36.39
2022-11-20T15:03:41.666Z,37.68
2022-11-20T15:05:46.096Z,35.52
2022-11-20T15:07:50.367Z,36.7
2022-11-20T15:09:54.802Z,35.72
2022-11-20T15:11:59.308Z,35.65
2022-11-20T15:14:03.646Z,36.33
2022-11-20T15:16:08.006Z,36.16
2022-11-20T15:18:12.323Z,37.18
2022-11-20T15:20:16.643Z,37.36
2022-11-20T15:22:20.985Z,36.05
2022-11-20T15:24:26.462Z,36.34
2022-11-20T15:26:30.916Z,37.15
2022-11-20T15:28:35.250Z,38.59
2022-11-20T15:30:39.592Z,36.35
2022-11-20T15:32:44.119Z,36.05
2022-11-20T15:34:48.530Z,37.29
2022-11-20T15:36:52.916Z,36.95
2022-11-20T15:38:57.356Z,37.55
2022-11-20T15:41:01.714Z,37.28
2022-11-20T15:43:14.271Z,36.73
2022-11-20T15:45:18.647Z,36.84
2022-11-20T15:47:23.053Z,37.6
2022-11-20T15:49:27.496Z,37.02
2022-11-20T15:51:31.884Z,37.18
2022-11-20T15:53:36.283Z,37.9
2022-11-20T15:55:40.583Z,37.65
2022-11-20T15:57:44.935Z,37.09
2022-11-20T15:59:49.285Z,38.32
2022-11-20T16:01:54.444Z,38.1
2022-11-20T16:03:59.050Z,36.95
2022-11-20T16:06:03.534Z,37.86
2022-11-20T16:08:13.720Z,38.39
2022-11-20T16:10:18.252Z,37.94
2022-11-20T16:12:22.658Z,38.67
2022-11-20T16:14:27.864Z,39.79
2022-11-20T16:16:32.331Z,40.2
2022-11-20T16:18:36.840Z,40.27
2022-11-20T16:20:41.196Z,40.22
2022-11-20T16:22:45.678Z,41.24
2022-11-20T16:24:50.082Z,40.03
2022-11-20T16:26:54.440Z,40.4
2022-11-20T16:28:58.970Z,40.62
2022-11-20T16:31:03.392Z,40.73
2022-11-20T16:33:07.795Z,40.57
2022-11-20T16:35:12.360Z,40.36
2022-11-20T16:37:16.666Z,40.81
2022-11-20T16:39:25.591Z,40.1
2022-11-20T16:41:29.926Z,41.83
2022-11-20T16:43:34.375Z,41.45
2022-11-20T16:45:39.192Z,42
2022-11-20T16:47:43.498Z,41.71
2022-11-20T16:49:47.884Z,42.01
2022-11-20T16:51:52.273Z,41.44
2022-11-20T16:53:56.666Z,41.67
2022-11-20T16:56:01.068Z,41.1
2022-11-20T16:58:05.470Z,40.93
2022-11-20T17:00:09.861Z,41.83
2022-11-20T17:02:14.262Z,40.47
2022-11-20T17:04:18.671Z,40.34
2022-11-20T17:06:23.115Z,40.04
2022-11-20T17:08:27.499Z,40.12
2022-11-20T17:10:31.877Z,40.47
2022-11-20T17:12:36.235Z,40.77
2022-11-20T17:14:40.607Z,40.36
2022-11-20T17:16:45.093Z,40.71
2022-11-20T17:18:49.456Z,40.48
2022-11-20T17:20:53.868Z,40.74
2022-11-20T17:22:58.269Z,40.86
2022-11-20T17:25:02.659Z,40.57
2022-11-20T17:27:07.001Z,40.39
2022-11-20T17:29:11.422Z,40.57
2022-11-20T17:31:15.859Z,40.41
2022-11-20T17:33:20.194Z,40.21
2022-11-20T17:35:24.623Z,40.34
2022-11-20T17:37:29.036Z,40.55
2022-11-20T17:39:33.445Z,40.27
2022-11-20T17:41:37.763Z,40.21
2022-11-20T17:43:42.122Z,40.34
2022-11-20T17:45:46.521Z,39.94
2022-11-20T17:47:50.923Z,40.58
2022-11-20T17:49:55.541Z,41.49
2022-11-20T17:51:59.897Z,39.91
2022-11-20T17:54:04.321Z,40.55
2022-11-20T17:56:08.705Z,40.93
2022-11-20T17:58:13.097Z,40.75
2022-11-20T18:00:17.408Z,40.72
2022-11-20T18:02:21.789Z,40.67
2022-11-20T18:04:27.171Z,41.74
2022-11-20T18:06:31.704Z,40.8
2022-11-20T18:08:36.100Z,41.01
2022-11-20T18:10:40.491Z,40.91
2022-11-20T18:12:44.898Z,40.5
2022-11-20T18:14:49.319Z,40.07
2022-11-20T18:16:53.688Z,40.09
2022-11-20T18:18:58.048Z,40.57
2022-11-20T18:21:02.389Z,40.86
2022-11-20T18:23:06.781Z,39.31
2022-11-20T18:25:11.150Z,38.65
2022-11-20T18:27:15.565Z,38.55
2022-11-20T18:29:19.953Z,38.95
2022-11-20T18:31:24.329Z,39.45
2022-11-20T18:33:30.598Z,39.4
2022-11-20T18:35:36.260Z,39.76
2022-11-20T18:37:40.810Z,38.72
2022-11-20T18:39:45.180Z,38.86
2022-11-20T18:41:49.559Z,38.88
2022-11-20T18:43:54.194Z,38.69
2022-11-20T18:45:58.561Z,38.76
2022-11-20T18:48:02.923Z,38.58
2022-11-20T18:50:07.255Z,38.76
2022-11-20T18:52:11.628Z,38.37
2022-11-20T18:54:15.927Z,38.93
2022-11-20T18:56:20.358Z,38.94
2022-11-20T18:58:24.763Z,38.92
2022-11-20T19:05:14.001Z,38.71
2022-11-20T19:07:18.749Z,38.52
2022-11-20T19:09:24.244Z,39.23
2022-11-20T19:11:28.738Z,39.62
2022-11-20T19:13:33.221Z,40.36
2022-11-20T19:15:37.550Z,40.66
2022-11-20T19:17:41.925Z,40.45
2022-11-20T19:19:46.315Z,41.4
2022-11-20T19:21:50.772Z,40.28
2022-11-20T19:23:55.298Z,39.9
2022-11-20T19:25:59.708Z,39.85
2022-11-20T19:28:04.028Z,39.48
2022-11-20T19:30:08.439Z,39.31
2022-11-20T19:32:12.815Z,38.93
2022-11-20T19:34:17.217Z,39.5
2022-11-20T19:36:21.618Z,39.93
2022-11-20T19:38:25.965Z,39.97
2022-11-20T19:40:30.364Z,40.05
2022-11-20T19:42:34.834Z,39.98
2022-11-20T19:44:39.263Z,39.9
2022-11-20T19:46:43.694Z,39.88
2022-11-20T19:48:48.123Z,39.88
2022-11-20T19:50:52.524Z,39.74
2022-11-20T19:53:00.915Z,40.05
2022-11-20T19:55:05.426Z,39.68
2022-11-20T19:57:09.766Z,39.81
2022-11-20T19:59:14.102Z,39.81
2022-11-20T20:01:18.688Z,39.7
2022-11-20T20:03:23.109Z,39.55
2022-11-20T20:05:27.406Z,39.57
2022-11-20T20:07:32.058Z,39.64
2022-11-20T20:09:36.408Z,39.65
2022-11-20T20:11:40.794Z,39.72
2022-11-20T20:13:45.202Z,39.5
2022-11-20T20:15:49.573Z,39.66
2022-11-20T20:17:53.889Z,39.62
2022-11-20T20:19:58.214Z,39.63
2022-11-20T20:22:02.527Z,39.3
2022-11-20T20:24:06.927Z,39.28
2022-11-20T20:26:11.272Z,39.4
2022-11-20T20:28:15.576Z,39.25
2022-11-20T20:30:19.943Z,38.33
2022-11-20T20:32:24.248Z,36.8
2022-11-20T20:34:28.561Z,36.94
2022-11-20T20:36:32.936Z,37.81
2022-11-20T20:38:37.236Z,38.66
2022-11-20T20:40:41.575Z,38.25
2022-11-20T20:42:45.927Z,38.13
2022-11-20T20:44:50.245Z,38.09
2022-11-20T20:46:54.589Z,38.31
2022-11-20T20:48:58.938Z,38.45
2022-11-20T20:51:03.251Z,38.46
2022-11-20T20:53:07.575Z,38.01
2022-11-20T20:55:11.893Z,38
2022-11-20T20:57:16.207Z,38.07
2022-11-20T20:59:20.791Z,38
2022-11-20T21:01:25.599Z,37.82
2022-11-20T21:03:35.058Z,38.23
2022-11-20T21:05:39.443Z,38.3
2022-11-20T21:07:43.898Z,38.36
2022-11-20T21:09:48.246Z,38.31
2022-11-20T21:11:52.641Z,38.24
2022-11-20T21:13:56.971Z,38.14
2022-11-20T21:16:01.333Z,38.01
2022-11-20T21:18:05.643Z,38.07
2022-11-20T21:20:09.950Z,38.11
2022-11-20T21:22:14.273Z,38.16
2022-11-20T21:24:18.584Z,37.96
2022-11-20T21:26:23.023Z,38.09
2022-11-20T21:28:27.333Z,37.94
2022-11-20T21:30:31.658Z,38.13
2022-11-20T21:32:35.989Z,38.1
2022-11-20T21:34:40.298Z,38.12
2022-11-20T21:36:44.649Z,38.01
2022-11-20T21:38:49.136Z,37.89
2022-11-20T21:40:53.500Z,37.91
2022-11-20T21:42:57.835Z,37.83
2022-11-20T21:45:02.140Z,37.85
2022-11-20T21:47:06.495Z,37.77
2022-11-20T21:49:10.804Z,37.85
2022-11-20T21:51:15.151Z,37.78
2022-11-20T21:53:19.500Z,37.74
2022-11-20T21:55:23.864Z,37.86
2022-11-20T21:57:28.163Z,37.85
2022-11-20T21:59:32.536Z,37.82
2022-11-20T22:01:37.046Z,37.68
2022-11-20T22:03:41.463Z,37.77
2022-11-20T22:05:45.776Z,37.87
2022-11-20T22:07:50.123Z,38.17
2022-11-20T22:09:54.432Z,38.08
2022-11-20T22:11:58.771Z,38.05
2022-11-20T22:14:03.067Z,37.78
2022-11-20T22:16:07.342Z,37.98
2022-11-20T22:18:11.669Z,37.99
2022-11-20T22:20:15.981Z,37.98
2022-11-20T22:22:20.321Z,37.93
2022-11-20T22:24:25.928Z,37.85
2022-11-20T22:26:30.425Z,37.6
2022-11-20T22:28:34.747Z,37.83
2022-11-20T22:30:39.063Z,38.05
2022-11-20T22:32:43.337Z,37.95
2022-11-20T22:34:47.691Z,37.92
2022-11-20T22:36:52.007Z,38.14
2022-11-20T22:38:56.322Z,38.01
2022-11-20T22:41:00.621Z,38.02
2022-11-20T22:43:04.940Z,38.01
2022-11-20T22:45:09.257Z,38.05
2022-11-20T22:47:13.719Z,37.99
2022-11-20T22:49:18.006Z,38.02
2022-11-20T22:51:22.326Z,38.03
2022-11-20T22:53:26.623Z,37.97
2022-11-20T22:55:30.918Z,37.95
2022-11-20T22:57:35.246Z,38.14
2022-11-20T22:59:39.565Z,38.07
2022-11-20T23:01:43.873Z,38
2022-11-20T23:03:48.500Z,38.21
2022-11-20T23:05:52.829Z,38.15
2022-11-20T23:07:57.134Z,37.94
2022-11-20T23:10:01.501Z,38.15
2022-11-20T23:12:05.808Z,37.98
2022-11-20T23:14:10.117Z,37.76
2022-11-20T23:16:14.400Z,37.81
2022-11-20T23:18:18.724Z,37.88
2022-11-20T23:20:23.080Z,38.06
2022-11-20T23:22:27.384Z,37.92
2022-11-20T23:24:31.792Z,38
2022-11-20T23:26:36.111Z,38.13
2022-11-20T23:28:40.394Z,38.14
2022-11-20T23:30:44.720Z,38.19
2022-11-20T23:32:49.037Z,38.15
2022-11-20T23:34:53.340Z,38.23
2022-11-20T23:36:57.622Z,38.28
2022-11-20T23:39:01.910Z,38.36
2022-11-20T23:41:06.245Z,38.51
2022-11-20T23:43:10.583Z,38.6
2022-11-20T23:45:14.876Z,38.65
2022-11-20T23:47:19.175Z,38.7
2022-11-20T23:49:23.500Z,38.98
2022-11-20T23:51:27.814Z,38.97
2022-11-20T23:53:32.134Z,39.22
2022-11-20T23:55:36.482Z,39.56
2022-11-20T23:57:40.771Z,39.28
2022-11-20T23:59:45.128Z,39.75
